FMMSFMMT

Guest
Details From FMMS - Sainte Marie
To FMMT - Toamasina
Flight Number -
Tags Generated
Created
Modified
Stats Distance 66 nm / 122 km
Max Altitude 0 ft / 0 m
Waypoints 2
Social Downloads 1
Likes 0
Share VATSIM

Download

Looking for another format? Having issues loading an existing format? Contact us
Advertisement - Login to hide

Notes

Generated

Route

FMMS FMMT

ID Type Via Altitude Latitude Longitude Leg Dist Tot Dist Heading (true) Name
O FMMS APT - 0 ft / 0 m -17.09898˚ 49.81671˚ - 0 nm - -
O FMMT APT - 0 ft / 0 m -18.11942˚ 49.39365˚ 65 nm 65 nm 201° / 202° -

Altitude Profile

Advertisement - Login to hide

FMMS

Details ICAO FMMS (SMS)
Name SAINTE MARIE
Region Comoros, Mayotte, Réunion and Madagascar
Timezone Indian/Antananarivo (UTC+3.0)
Stats Elevation 7 ft / 2 m (AMSL)
Location -17.094260° 49.816153°
Runways 1
Magnetic Variation 13.692° W

METAR

Not found

TAF

TAF TAF FMMS 132300Z 1400/1424 06005KT 9999 FEW007 SCT017CB BKN033 PROB40 TEMPO 1400/1424 3500 TSRA BECMG 1405/1408 16010KT

Decode

Departure Runways

ID Width Length Bearing (true) Bearing (mag) Surface Threshold Offset Overrun Length
01 98 ft / 30 m 3,468 ft / 1,057 m 353.60° 7.29° Asphalt 0 ft / 0 m 0 ft / 0 m
19 98 ft / 30 m 3,468 ft / 1,057 m 173.60° 187.29° Asphalt 290 ft / 88 m 100 ft / 30 m

FMMT

Details ICAO FMMT (TMM)
Name TOAMASINA
Region Comoros, Mayotte, Réunion and Madagascar
Timezone Indian/Antananarivo (UTC+3.0)
Stats Elevation 22 ft / 7 m (AMSL)
Location -18.109517° 49.392536°
Runways 1
Magnetic Variation 14.779° W

METAR

FMMT 140800Z 06004KT 9999 FEW017 BKN033 29/25 Q1013 NOSIG

Decode

TAF

TAF FMMT 132300Z 1400/1424 00000KT 9999 FEW007 SCT017CB BKN033 PROB40 TEMPO 1400/1424 4000 TSRA BECMG 1405/1408 18010KT

Decode

Destination Runways

ID Width Length Bearing (true) Bearing (mag) Surface Threshold Offset Overrun Length
01 131 ft / 40 m 7,270 ft / 2,216 m 353.90° 8.68° Asphalt 0 ft / 0 m 100 ft / 30 m
19 131 ft / 40 m 7,270 ft / 2,216 m 173.90° 188.68° Asphalt 0 ft / 0 m 197 ft / 60 m

Approach Navaids

Runway Type Ident Frequency Range Bearing (true) Bearing (mag) Slope Elevation
19 Localiser TO 110.30 MHz 18 nm / 33 km 173.77° 188.55° - 22 ft / 7 m (AMSL)
19 Glidescope TO 110.30 MHz 10 nm / 19 km 173.90° 188.68° 3.00° 22 ft / 7 m (AMSL)

Popular Alternatives